Historique des mesures à Cassis (13260), France
Quotidien Résumé Juin 25, 2021 Unités:  Métrique    US   Métrique/US
Quotidien Hebdomadaire Mensuel Annuel
  Maximum: Minimum: Moyenne:
Température: 11.6 °C 8.9 °C 10.6 °C
Point de rosée: 9.5 °C 7.3 °C 8.5 °C
Humidité: 90% 83% 87%
Vitesse du vent: 19.8km/h 0km/h 4.6km/h
Rafales: 23.8km/h - -
Vent- - SE
Pression: 1005.8 hPa 1000.2 hPa -
Précipitations: 45.0 mm    
Historical Graphs
 
 
Mesures pour : Juin 25, 2021
Heure Temperature Point de rosée Pression Vent Vitesse du vent Rafales Humidité Pluie (par heure)
00:10 10.9 °C 8.5 °C 1005.8 hPa NE 3.6 km/h 14 km/h 85% 0.5 mm
01:11 11.3 °C 8.9 °C 1005.0 hPa Calm   11.5 km/h 85% 0.0 mm
02:10 11.1 °C 8.5 °C 1004.5 hPa ENE 1.8 km/h 6.1 km/h 84% 0.5 mm
03:11 11.3 °C 8.7 °C 1004.3 hPa Calm   9.7 km/h 84% 0.0 mm
04:10 11.5 °C 8.9 °C 1003.9 hPa ESE 8.3 km/h 14.4 km/h 84% 0.0 mm
05:11 11.4 °C 8.8 °C 1003.2 hPa ESE 1.8 km/h 13 km/h 84% 0.0 mm
06:10 11.6 °C 8.8 °C 1003.0 hPa ESE 2.2 km/h 14.8 km/h 83% 0.0 mm
07:11 11.6 °C 9 °C 1003.0 hPa NE 9.7 km/h 15.5 km/h 84% 1.5 mm
08:10 11 °C 8.9 °C 1002.8 hPa Calm   11.2 km/h 87% 4.6 mm
09:11 11.3 °C 9.2 °C 1003.4 hPa East 2.9 km/h 6.8 km/h 87% 0.5 mm
10:10 11.3 °C 9.2 °C 1003.1 hPa ESE 3.2 km/h 10.4 km/h 87% 1.0 mm
11:11 11.1 °C 9.2 °C 1003.6 hPa NNE 2.5 km/h 6.1 km/h 88% 3.0 mm
12:10 10.9 °C 9 °C 1003.1 hPa NNE 2.2 km/h 13.3 km/h 88% 5.1 mm
13:11 11.6 °C 9.5 °C 1002.5 hPa NNE 8.6 km/h 9 km/h 87% 2.0 mm
14:10 10.4 °C 8.1 °C 1002.7 hPa Calm   6.8 km/h 86% 3.6 mm
15:11 9.4 °C 7.3 °C 1002.1 hPa Calm   5 km/h 87% 4.6 mm
16:11 9.3 °C 7.6 °C 1002.1 hPa WNW 10.4 km/h 13.7 km/h 89% 7.4 mm
17:10 9.1 °C 7.4 °C 1002.1 hPa North 5 km/h 7.9 km/h 89% 4.6 mm
18:11 8.9 °C 7.4 °C 1001.6 hPa WNW 6.5 km/h 13.7 km/h 90% 2.5 mm
19:10 9.3 °C 7.8 °C 1000.9 hPa WNW 19.8 km/h 23.8 km/h 90% 2.5 mm
20:11 9.7 °C 8.1 °C 1000.9 hPa WNW 7.6 km/h 21.2 km/h 90% 0.0 mm
21:10 10.1 °C 8.5 °C 1000.7 hPa Calm   10.4 km/h 90% 0.0 mm
22:11 10.2 °C 8.4 °C 1000.3 hPa WNW 8.6 km/h 12.2 km/h 89% 0.0 mm
23:10 10.2 °C 8.3 °C 1000.2 hPa WNW 6.8 km/h 8.6 km/h 88% 0.0 mm
Observations météo à CASSIS
WU-History script by Weather Underground - 2 mb